Time;durP1;ratioP1;P1;durP2;ratioP2;P2;SDS_P1;SDS_P2;PMS_P1;PMS_P2;Temp;Humidity;BMP_temperature;BMP_pressure;BME280_temperature;BME280_humidity;BME280_pressure;Samples;Min_cycle;Max_cycle;Signal;HPM_P1;HPM_P2
2023/09/09 00:00:46;;;;;;;15.38;11.23;;;16.50;99.90;;;15.54;100.00;101544.78;4942538;29;20034;-76
2023/09/09 00:03:12;;;;;;;17.95;11.70;;;16.50;99.90;;;15.58;100.00;101542.84;4941219;29;20035;-77
2023/09/09 00:05:38;;;;;;;19.67;12.15;;;16.50;99.90;;;15.62;100.00;101535.56;4940456;29;20047;-77
2023/09/09 00:08:04;;;;;;;19.42;11.75;;;16.60;99.90;;;15.65;100.00;101546.84;4938733;29;20041;-76
2023/09/09 00:10:35;;;;;;;17.90;10.80;;;16.60;99.90;;;15.71;100.00;101541.25;4940050;29;20042;-76
2023/09/09 00:13:01;;;;;;;16.33;10.80;;;16.60;99.90;;;15.74;100.00;101541.09;4943307;28;20289;-76
2023/09/09 00:15:29;;;;;;;15.10;11.80;;;16.60;99.90;;;15.77;100.00;101543.56;4923666;29;21310;-77
2023/09/09 00:17:55;;;;;;;17.48;12.40;;;16.70;99.90;;;15.81;100.00;101543.38;4954132;28;20038;-77
2023/09/09 00:20:33;;;;;;;19.95;11.90;;;16.70;99.90;;;15.79;100.00;101549.66;4958838;28;20032;-76
2023/09/09 00:23:09;;;;;;;21.00;12.82;;;16.60;99.90;;;15.76;100.00;101548.94;4950533;28;20055;-77
2023/09/09 00:25:36;;;;;;;21.63;12.23;;;16.60;99.90;;;15.73;100.00;101536.72;4959881;28;20566;-77
2023/09/09 00:28:02;;;;;;;21.23;12.23;;;16.60;99.90;;;15.71;100.00;101535.94;4942730;29;20047;-77
2023/09/09 00:30:29;;;;;;;19.73;12.05;;;16.70;99.90;;;15.70;100.00;101528.91;4942833;29;20398;-77
2023/09/09 00:32:55;;;;;;;16.80;11.80;;;16.60;99.90;;;15.74;100.00;101526.94;4942008;28;20118;-76
2023/09/09 00:35:21;;;;;;;17.48;11.65;;;16.70;99.90;;;15.79;100.00;101522.25;4943604;28;20442;-76
2023/09/09 00:37:47;;;;;;;20.80;11.82;;;16.70;99.90;;;15.84;100.00;101530.81;4946271;29;20086;-76
2023/09/09 00:40:12;;;;;;;20.80;11.85;;;16.70;99.90;;;15.90;100.00;101530.47;4943294;29;20043;-76
2023/09/09 00:42:39;;;;;;;22.63;13.15;;;16.80;99.90;;;15.90;100.00;101527.81;4943023;29;20516;-76
2023/09/09 00:45:05;;;;;;;21.98;12.57;;;16.80;99.90;;;15.91;100.00;101526.84;4942869;29;20056;-76
2023/09/09 00:47:32;;;;;;;19.67;12.32;;;16.80;99.90;;;15.95;100.00;101539.00;4956798;28;20043;-77
2023/09/09 00:49:59;;;;;;;18.85;13.13;;;16.90;99.90;;;15.97;100.00;101530.97;4962074;28;20035;-76
2023/09/09 00:52:26;;;;;;;20.83;12.63;;;16.80;99.90;;;15.95;100.00;101530.19;4942379;28;20422;-77
2023/09/09 00:54:52;;;;;;;17.45;12.77;;;16.80;99.90;;;15.91;100.00;101529.50;4958521;28;20028;-77
2023/09/09 00:57:18;;;;;;;18.85;12.90;;;16.80;99.90;;;15.89;100.00;101528.72;4926285;29;20050;-76
2023/09/09 00:59:46;;;;;;;20.73;13.07;;;16.80;99.90;;;15.90;100.00;101530.47;4958192;28;20046;-76
2023/09/09 01:02:11;;;;;;;17.05;12.85;;;16.80;99.90;;;15.85;100.00;101524.53;4928168;29;20031;-77
2023/09/09 01:04:37;;;;;;;20.38;14.05;;;16.80;99.90;;;15.83;100.00;101517.59;4941914;28;20062;-76
2023/09/09 01:07:04;;;;;;;18.40;13.02;;;16.70;99.90;;;15.79;100.00;101514.28;4943473;28;20023;-77
2023/09/09 01:09:31;;;;;;;23.75;13.30;;;16.70;99.90;;;15.81;100.00;101520.38;4956744;28;20035;-77
2023/09/09 01:11:58;;;;;;;19.83;12.75;;;16.70;99.90;;;15.84;100.00;101530.81;4959988;28;20497;-76
2023/09/09 01:14:24;;;;;;;17.08;12.70;;;16.80;99.90;;;15.84;100.00;101529.94;4942035;29;20035;-77
2023/09/09 01:16:52;;;;;;;19.88;12.70;;;16.70;99.90;;;15.82;100.00;101523.88;4936151;29;20035;-77
2023/09/09 01:19:27;;;;;;;18.67;12.75;;;16.70;99.90;;;15.78;100.00;101516.06;4955459;29;20094;-78
2023/09/09 01:22:00;;;;;;;21.92;13.95;;;16.70;99.90;;;15.77;100.00;101514.34;4952923;29;20049;-78
2023/09/09 01:24:26;;;;;;;21.15;14.43;;;16.60;99.90;;;15.71;100.00;101517.34;4946263;28;20019;-78
2023/09/09 01:26:51;;;;;;;22.08;13.90;;;16.60;99.90;;;15.65;100.00;101515.00;4960589;28;20036;-78
2023/09/09 01:29:17;;;;;;;17.13;13.50;;;16.50;99.90;;;15.54;100.00;101520.91;4943694;28;20130;-77
2023/09/09 01:31:43;;;;;;;19.38;13.38;;;16.50;99.90;;;15.51;100.00;101523.72;4943346;28;20050;-78
2023/09/09 01:34:08;;;;;;;21.67;13.60;;;16.50;99.90;;;15.50;100.00;101526.47;4946296;28;20046;-77
2023/09/09 01:36:34;;;;;;;20.63;13.80;;;16.40;99.90;;;15.48;100.00;101523.03;4942175;28;20051;-77
2023/09/09 01:39:00;;;;;;;22.70;14.50;;;16.40;99.90;;;15.42;100.00;101523.34;4946333;29;20034;-77
2023/09/09 01:41:25;;;;;;;21.55;14.38;;;16.40;99.90;;;15.39;100.00;101529.69;4959701;28;20031;-77
2023/09/09 01:43:51;;;;;;;23.00;14.77;;;16.30;99.90;;;15.33;100.00;101522.94;4942866;29;20035;-77
2023/09/09 01:46:17;;;;;;;20.23;15.45;;;16.30;99.90;;;15.32;100.00;101520.38;4960731;28;20039;-78
2023/09/09 01:48:43;;;;;;;23.13;15.40;;;16.20;99.90;;;15.28;100.00;101521.47;4944526;29;20030;-77
2023/09/09 01:51:08;;;;;;;20.85;14.85;;;16.20;99.90;;;15.24;100.00;101525.22;4951047;28;20102;-77
2023/09/09 01:53:35;;;;;;;17.98;12.98;;;16.10;99.90;;;15.17;100.00;101519.38;4934889;29;20043;-77
2023/09/09 01:56:01;;;;;;;22.90;13.85;;;16.10;99.90;;;15.11;100.00;101519.72;4961556;28;20063;-77
2023/09/09 01:58:26;;;;;;;25.73;16.38;;;16.00;99.90;;;15.05;100.00;101522.69;4960546;28;20420;-77
2023/09/09 02:00:52;;;;;;;25.85;17.33;;;15.90;99.90;;;14.98;100.00;101517.69;4944617;29;20036;-77
2023/09/09 02:03:18;;;;;;;20.58;15.93;;;15.90;99.90;;;14.89;100.00;101515.53;4945531;28;20023;-77
2023/09/09 02:05:44;;;;;;;36.75;16.42;;;15.80;99.90;;;14.82;100.00;101511.50;4946182;29;20034;-77
2023/09/09 02:08:10;;;;;;;24.15;17.00;;;15.80;99.90;;;14.77;100.00;101514.38;4942204;28;20514;-77
2023/09/09 02:10:36;;;;;;;25.65;17.48;;;15.70;99.90;;;14.69;100.00;101510.41;4968073;28;20044;-77
2023/09/09 02:13:02;;;;;;;27.90;17.38;;;15.70;99.90;;;14.65;100.00;101511.50;4943268;29;20062;-77
2023/09/09 02:15:27;;;;;;;26.42;18.15;;;15.60;99.90;;;14.63;100.00;101513.38;4943915;28;20035;-77
2023/09/09 02:17:53;;;;;;;26.92;16.40;;;15.60;99.90;;;14.61;100.00;101520.53;4942611;29;20093;-77
2023/09/09 02:20:19;;;;;;;24.70;17.50;;;15.50;99.90;;;14.54;100.00;101518.16;4944269;29;20031;-77
2023/09/09 02:22:45;;;;;;;18.92;14.13;;;15.50;99.90;;;14.47;100.00;101513.25;4946722;28;20026;-77
2023/09/09 02:25:10;;;;;;;22.30;16.15;;;15.40;99.90;;;14.43;100.00;101523.16;4946768;28;20090;-77
2023/09/09 02:27:36;;;;;;;26.73;17.08;;;15.30;99.90;;;14.37;100.00;101515.50;4945177;29;20031;-77
2023/09/09 02:30:02;;;;;;;23.70;17.88;;;15.30;99.90;;;14.32;100.00;101520.19;4943408;29;20031;-76
2023/09/09 02:32:28;;;;;;;24.48;18.83;;;15.30;99.90;;;14.26;100.00;101520.50;4944550;29;20110;-77
2023/09/09 02:34:53;;;;;;;21.48;17.77;;;15.20;99.90;;;14.19;100.00;101514.66;4944749;29;20450;-77
2023/09/09 02:37:21;;;;;;;29.02;18.52;;;15.20;99.90;;;14.11;100.00;101516.81;4943248;28;20078;-77
2023/09/09 02:39:49;;;;;;;35.88;18.20;;;15.10;99.90;;;14.06;100.00;101510.84;4950916;28;20035;-78
2023/09/09 02:42:19;;;;;;;23.42;16.48;;;15.10;99.90;;;14.09;100.00;101508.94;4961204;28;20023;-77
2023/09/09 02:44:46;;;;;;;25.73;17.33;;;15.10;99.90;;;14.09;100.00;101508.94;4946108;28;20031;-77
2023/09/09 02:47:13;;;;;;;24.60;16.48;;;15.10;99.90;;;14.10;100.00;101509.78;4945791;29;20035;-78
2023/09/09 02:49:39;;;;;;;24.65;17.63;;;15.10;99.90;;;14.11;100.00;101519.44;4945036;29;20047;-77
2023/09/09 02:52:06;;;;;;;22.85;16.90;;;15.10;99.90;;;14.08;100.00;101520.47;4945306;28;20518;-77
2023/09/09 02:54:37;;;;;;;18.75;13.73;;;15.10;99.90;;;14.03;100.00;101514.50;4944616;28;20039;-77
2023/09/09 02:57:03;;;;;;;19.88;13.80;;;15.00;99.90;;;13.93;100.00;101518.53;4930570;29;20046;-77
2023/09/09 02:59:33;;;;;;;23.63;16.75;;;14.90;99.90;;;13.85;100.00;101512.78;4950012;28;20081;-77
2023/09/09 03:01:59;;;;;;;21.88;15.00;;;14.80;99.90;;;13.78;100.00;101520.16;4945853;28;20320;-77
2023/09/09 03:04:25;;;;;;;29.08;18.92;;;14.80;99.90;;;13.72;100.00;101516.00;4945295;29;20493;-78
2023/09/09 03:06:51;;;;;;;24.70;18.75;;;14.70;99.90;;;13.71;100.00;101516.06;4946186;29;20094;-77
2023/09/09 03:09:18;;;;;;;25.13;17.63;;;14.70;99.90;;;13.67;100.00;101509.19;4946286;29;20055;-78
2023/09/09 03:11:43;;;;;;;23.35;17.30;;;14.70;99.90;;;13.68;100.00;101506.47;4963745;28;20114;-77
2023/09/09 03:14:09;;;;;;;22.50;14.20;;;14.70;99.90;;;13.74;100.00;101514.13;4943646;29;20468;-77
2023/09/09 03:16:37;;;;;;;27.15;17.52;;;14.70;99.90;;;13.76;100.00;101511.41;4944387;29;20524;-77
2023/09/09 03:19:02;;;;;;;24.13;16.63;;;14.70;99.90;;;13.80;100.00;101510.34;4941445;29;20066;-78
2023/09/09 03:21:28;;;;;;;23.33;15.85;;;14.80;99.90;;;13.79;100.00;101505.13;4948681;28;20405;-77
2023/09/09 03:23:54;;;;;;;20.55;15.02;;;14.70;99.90;;;13.79;100.00;101505.13;4962515;28;20024;-78
2023/09/09 03:26:22;;;;;;;24.38;17.67;;;14.70;99.90;;;13.78;100.00;101498.97;4961957;28;20062;-77
2023/09/09 03:28:49;;;;;;;24.98;18.02;;;14.80;99.90;;;13.80;100.00;101497.13;4930284;29;20033;-76
2023/09/09 03:31:15;;;;;;;27.40;16.92;;;14.80;99.90;;;13.84;100.00;101503.94;4943700;29;20031;-78
2023/09/09 03:33:41;;;;;;;26.08;16.05;;;14.80;99.90;;;13.87;100.00;101500.31;4960787;28;20070;-77
2023/09/09 03:36:07;;;;;;;27.40;16.98;;;14.90;99.90;;;13.90;100.00;101503.66;4947943;29;20035;-77
2023/09/09 03:38:34;;;;;;;22.95;17.02;;;14.90;99.90;;;13.94;100.00;101496.44;4936475;29;20027;-77
2023/09/09 03:41:00;;;;;;;28.65;17.15;;;14.90;99.90;;;13.92;100.00;101500.94;4944581;29;20031;-77
2023/09/09 03:43:26;;;;;;;30.08;17.83;;;14.90;99.90;;;13.93;100.00;101500.00;4943676;29;20027;-77
2023/09/09 03:45:56;;;;;;;25.25;17.77;;;14.90;99.90;;;13.90;100.00;101497.50;4960648;28;20031;-77
2023/09/09 03:48:22;;;;;;;24.50;17.50;;;14.90;99.90;;;13.83;100.00;101490.81;4944615;29;20475;-77
2023/09/09 03:50:48;;;;;;;29.05;18.20;;;14.90;99.90;;;13.81;100.00;101500.59;4952142;29;20087;-77
2023/09/09 03:53:14;;;;;;;24.48;16.58;;;14.90;99.90;;;13.85;100.00;101499.53;4942221;29;20098;-77
2023/09/09 03:55:39;;;;;;;25.65;17.77;;;14.80;99.90;;;13.87;100.00;101502.97;4964516;28;20474;-77
2023/09/09 03:58:05;;;;;;;25.35;18.13;;;14.90;99.90;;;13.88;100.00;101504.66;4948873;29;20036;-78
2023/09/09 04:00:31;;;;;;;22.48;16.70;;;14.90;99.90;;;13.84;100.00;101500.44;4948873;28;20031;-77
2023/09/09 04:02:56;;;;;;;23.17;17.23;;;14.80;99.90;;;13.83;100.00;101501.41;4949312;28;20034;-77
2023/09/09 04:05:23;;;;;;;30.15;16.38;;;14.90;99.90;;;13.84;100.00;101496.00;4946002;29;20036;-78
2023/09/09 04:07:48;;;;;;;24.80;17.27;;;14.90;99.90;;;13.87;100.00;101498.53;4948448;28;20094;-77
2023/09/09 04:10:14;;;;;;;23.88;16.02;;;14.90;99.90;;;13.92;100.00;101495.66;4949266;28;20075;-77
2023/09/09 04:12:40;;;;;;;25.25;16.23;;;14.90;99.90;;;13.93;100.00;101490.28;4930584;29;20394;-77
2023/09/09 04:15:07;;;;;;;25.27;16.80;;;14.90;99.90;;;13.96;100.00;101491.94;4946031;29;20035;-77
2023/09/09 04:17:33;;;;;;;23.80;15.88;;;15.00;99.90;;;13.97;100.00;101492.78;4947198;28;20034;-77
2023/09/09 04:19:58;;;;;;;26.27;15.63;;;15.00;99.90;;;14.00;100.00;101493.50;4947663;29;20043;-77
2023/09/09 04:22:26;;;;;;;25.85;16.10;;;15.00;99.90;;;14.05;100.00;101498.56;4954501;29;20054;-77
2023/09/09 04:24:53;;;;;;;22.95;16.55;;;15.10;99.90;;;14.08;100.00;101493.09;4975793;28;20012;-77
2023/09/09 04:27:20;;;;;;;22.63;15.13;;;15.10;99.90;;;14.14;100.00;101491.00;4941141;28;20035;-77
2023/09/09 04:29:46;;;;;;;20.80;14.50;;;15.10;99.90;;;14.22;100.00;101495.09;4944254;29;20522;-77
2023/09/09 04:32:14;;;;;;;26.02;14.52;;;15.20;99.90;;;14.32;100.00;101493.72;4961240;28;20039;-77
2023/09/09 04:34:40;;;;;;;20.55;14.82;;;15.30;99.90;;;14.41;100.00;101497.69;4961611;28;20123;-77
2023/09/09 04:37:06;;;;;;;19.98;13.80;;;15.40;99.90;;;14.51;100.00;101497.13;4945015;29;20409;-77
2023/09/09 04:39:31;;;;;;;20.23;14.32;;;15.50;99.90;;;14.64;100.00;101499.19;4943376;29;20083;-77
2023/09/09 04:41:57;;;;;;;25.73;14.85;;;15.60;99.90;;;14.76;100.00;101493.25;4943187;28;20091;-77
2023/09/09 04:44:23;;;;;;;19.15;14.00;;;15.70;99.90;;;14.87;100.00;101498.00;4947844;28;20043;-77
2023/09/09 04:46:49;;;;;;;20.45;13.95;;;15.70;99.90;;;14.93;100.00;101493.22;4944512;29;20464;-77
2023/09/09 04:49:17;;;;;;;20.60;13.50;;;15.80;99.90;;;15.04;100.00;101495.31;4944329;28;20107;-77
2023/09/09 04:51:43;;;;;;;21.35;13.32;;;16.00;99.90;;;15.18;100.00;101489.25;4928633;29;20590;-78
2023/09/09 04:54:09;;;;;;;19.02;13.68;;;16.10;99.90;;;15.31;100.00;101495.63;4958841;28;20039;-78
2023/09/09 04:56:35;;;;;;;18.55;13.82;;;16.20;99.90;;;15.43;100.00;101496.75;4945660;28;20394;-78
2023/09/09 04:59:01;;;;;;;21.80;13.48;;;16.30;99.90;;;15.56;100.00;101494.28;4943484;28;20036;-77
2023/09/09 05:01:26;;;;;;;23.88;13.23;;;16.40;99.90;;;15.59;100.00;101500.28;4943595;29;20083;-78
2023/09/09 05:03:52;;;;;;;18.85;13.40;;;16.50;99.90;;;15.70;100.00;101499.69;4935143;29;20038;-78
2023/09/09 05:06:18;;;;;;;22.25;14.00;;;16.50;99.90;;;15.77;100.00;101508.19;4943853;28;20066;-77
2023/09/09 05:08:45;;;;;;;21.23;13.82;;;16.50;99.90;;;15.73;100.00;101498.69;4960894;28;20047;-78
2023/09/09 05:11:10;;;;;;;22.38;14.02;;;16.60;99.90;;;15.79;100.00;101504.50;4927479;29;20032;-77
2023/09/09 05:13:36;;;;;;;22.73;13.63;;;16.70;99.90;;;15.91;100.00;101504.75;4943922;29;20027;-77
2023/09/09 05:16:02;;;;;;;23.02;14.25;;;16.70;99.90;;;16.03;100.00;101503.22;4943093;29;21330;-77
2023/09/09 05:18:28;;;;;;;22.92;14.27;;;16.80;99.90;;;16.13;100.00;101509.69;4945687;29;20062;-78
2023/09/09 05:20:54;;;;;;;20.42;14.85;;;16.90;99.90;;;16.38;99.80;101509.97;4960514;28;20467;-78
2023/09/09 05:23:19;;;;;;;24.58;13.90;;;17.00;99.90;;;16.83;96.82;101514.50;4928121;29;20445;-76
2023/09/09 05:25:45;;;;;;;19.15;14.25;;;17.20;99.90;;;16.75;95.11;101513.13;4942879;29;20035;-77
2023/09/09 05:28:11;;;;;;;19.95;13.93;;;17.30;99.90;;;16.78;95.00;101515.59;4943963;28;20038;-78
2023/09/09 05:30:40;;;;;;;21.55;13.52;;;17.40;99.90;;;16.75;94.64;101512.25;4959894;28;20075;-78
2023/09/09 05:33:06;;;;;;;26.60;13.77;;;17.40;99.90;;;16.93;94.41;101520.97;4960289;28;20035;-78
2023/09/09 05:35:32;;;;;;;20.38;13.88;;;17.50;99.90;;;17.13;92.89;101519.75;4928358;29;20165;-78
2023/09/09 05:37:58;;;;;;;29.10;13.52;;;17.70;99.90;;;17.60;90.95;101532.75;4946584;28;20039;-77
2023/09/09 05:40:24;;;;;;;19.65;13.18;;;17.80;99.90;;;17.58;89.89;101526.69;4935563;29;20055;-77
2023/09/09 05:42:49;;;;;;;17.88;13.73;;;17.90;99.90;;;17.65;89.06;101523.63;4945743;29;20035;-77
2023/09/09 05:45:15;;;;;;;21.77;13.40;;;18.10;99.90;;;17.87;88.21;101520.47;4958964;28;20031;-77
2023/09/09 05:47:42;;;;;;;26.90;13.32;;;18.20;99.90;;;18.02;87.14;101524.81;4944564;28;20035;-77
2023/09/09 05:50:08;;;;;;;22.92;13.00;;;18.40;99.90;;;18.83;84.14;101519.38;4942680;29;20723;-76
2023/09/09 05:52:34;;;;;;;17.58;12.95;;;18.70;99.90;;;19.02;81.83;101531.44;4944209;28;20045;-77
2023/09/09 05:54:59;;;;;;;22.00;13.00;;;18.90;99.90;;;19.32;80.66;101525.75;4946437;28;20490;-78
2023/09/09 05:57:25;;;;;;;18.88;12.50;;;18.90;99.90;;;20.51;76.95;101542.06;4960089;28;20070;-77
2023/09/09 05:59:51;;;;;;;19.45;12.30;;;19.70;99.90;;;21.24;73.18;101540.91;4927698;29;20418;-78
2023/09/09 06:02:17;;;;;;;26.58;12.35;;;20.00;99.90;;;20.47;73.56;101532.53;4943865;29;20036;-78
2023/09/09 06:04:42;;;;;;;19.83;12.60;;;20.10;99.90;;;20.23;74.91;101537.91;4959053;28;20031;-77
2023/09/09 06:07:09;;;;;;;18.75;12.13;;;20.10;99.90;;;19.96;75.76;101527.47;4946543;29;20094;-77
2023/09/09 06:09:34;;;;;;;20.88;12.00;;;20.00;99.90;;;19.79;76.72;101536.72;4944588;29;20027;-78
2023/09/09 06:12:01;;;;;;;25.73;12.57;;;20.00;99.90;;;19.83;76.67;101533.72;4942567;29;20407;-81
2023/09/09 06:14:27;;;;;;;17.83;12.02;;;19.90;99.90;;;19.39;78.09;101534.19;4942936;28;20032;-77
2023/09/09 06:16:53;;;;;;;18.63;11.98;;;19.90;99.90;;;19.56;78.55;101528.50;4958019;28;20035;-77
2023/09/09 06:19:18;;;;;;;17.98;11.65;;;19.90;99.90;;;19.59;77.71;101527.41;4942483;28;20516;-77
2023/09/09 06:21:44;;;;;;;23.17;12.70;;;19.90;99.90;;;19.44;79.01;101524.91;4956583;28;20028;-77
2023/09/09 06:24:12;;;;;;;20.23;12.38;;;19.80;99.90;;;19.40;79.04;101534.09;4956522;28;20082;-77
2023/09/09 06:26:38;;;;;;;18.13;12.38;;;19.80;99.90;;;19.46;79.52;101533.66;4957343;28;20404;-77
2023/09/09 06:29:04;;;;;;;15.82;12.55;;;19.90;99.90;;;20.51;76.91;101546.56;4925421;29;20043;-77
2023/09/09 06:31:30;;;;;;;18.52;11.35;;;20.30;99.90;;;20.72;74.34;101555.66;4926304;29;20031;-78
2023/09/09 06:33:56;;;;;;;19.38;12.65;;;20.40;99.90;;;20.61;75.02;101553.81;4956629;28;20045;-78
2023/09/09 06:36:22;;;;;;;23.38;11.60;;;20.60;99.90;;;20.52;75.01;101554.47;4942946;28;20028;-76
2023/09/09 06:38:49;;;;;;;24.48;11.77;;;20.70;99.90;;;20.97;74.33;101562.66;4942732;29;20039;-77
2023/09/09 06:41:15;;;;;;;21.92;12.30;;;21.20;99.90;;;22.82;69.34;101578.09;4941244;29;20027;-78
2023/09/09 06:43:42;;;;;;;24.20;11.85;;;21.90;99.90;;;24.01;66.07;101576.72;4941890;29;20043;-77
2023/09/09 06:46:08;;;;;;;20.00;11.07;;;22.90;99.90;;;25.74;61.31;101602.75;4940549;28;20024;-77
2023/09/09 06:48:34;;;;;;;14.88;10.20;;;24.00;99.90;;;27.49;56.24;101614.00;4943998;29;20047;-77
2023/09/09 06:51:00;;;;;;;14.88;10.23;;;25.20;99.90;;;29.05;52.97;101636.09;4945230;29;20027;-78
2023/09/09 06:53:26;;;;;;;21.92;11.52;;;26.60;99.90;;;30.59;49.97;101651.13;4944212;28;20035;-78
2023/09/09 06:55:52;;;;;;;16.00;10.70;;;28.00;99.90;;;32.07;46.47;101678.63;4960182;28;20019;-77
2023/09/09 06:58:18;;;;;;;14.02;10.82;;;29.10;99.90;;;31.96;46.13;101683.66;4955973;28;20027;-77
2023/09/09 07:00:50;;;;;;;18.50;10.32;;;29.70;99.90;;;31.49;46.34;101688.47;4958235;28;20086;-77
2023/09/09 07:03:17;;;;;;;16.23;10.02;;;30.10;99.90;;;31.57;46.36;101692.97;4941453;29;20028;-77
2023/09/09 07:05:42;;;;;;;15.90;10.02;;;30.20;99.40;;;31.00;46.73;101691.63;4941898;29;20039;-77
2023/09/09 07:08:08;;;;;;;14.77;9.98;;;30.00;98.00;;;29.93;47.69;101678.63;4959540;28;20047;-78
2023/09/09 07:10:34;;;;;;;14.25;8.93;;;29.90;99.30;;;30.08;47.78;101677.91;4957107;28;20050;-77
2023/09/09 07:13:00;;;;;;;15.35;8.95;;;29.80;99.20;;;30.54;46.76;101691.56;4941762;29;20110;-77
2023/09/09 07:15:26;;;;;;;12.90;8.27;;;30.00;98.40;;;30.98;46.13;101696.41;4939677;29;20059;-78
2023/09/09 07:17:51;;;;;;;11.52;8.85;;;30.30;97.50;;;30.59;46.11;101700.91;4938789;28;20539;-78
2023/09/09 07:20:17;;;;;;;15.52;8.50;;;30.50;97.10;;;30.91;45.44;101709.00;4941687;29;20028;-77
2023/09/09 07:22:43;;;;;;;11.60;9.00;;;30.50;98.70;;;31.51;44.81;101715.47;4942523;28;20621;-77
2023/09/09 07:25:09;;;;;;;11.43;8.77;;;31.20;96.00;;;31.80;43.37;101731.84;4941569;28;20057;-77
2023/09/09 07:27:35;;;;;;;14.38;8.05;;;31.40;95.70;;;31.86;43.20;101735.69;4958401;28;20042;-77
2023/09/09 07:30:00;;;;;;;9.77;8.05;;;31.70;94.60;;;32.04;42.63;101744.34;4944549;28;20043;-76
2023/09/09 07:32:26;;;;;;;16.33;8.40;;;32.00;94.30;;;32.40;42.46;101743.56;4944237;28;20031;-77
2023/09/09 07:34:52;;;;;;;10.57;7.95;;;32.30;93.00;;;32.16;42.16;101754.75;4947430;29;20544;-77
2023/09/09 07:37:17;;;;;;;16.52;8.50;;;32.70;93.20;;;32.71;41.23;101750.66;4946724;28;20031;-77
2023/09/09 07:39:50;;;;;;;16.33;8.60;;;32.70;93.60;;;32.30;42.38;101753.91;4946490;29;20058;-77
2023/09/09 07:42:15;;;;;;;12.15;8.13;;;32.70;94.60;;;31.87;43.15;101734.66;4943896;29;20067;-78
2023/09/09 07:44:43;;;;;;;11.98;8.77;;;32.50;94.30;;;32.59;41.96;101753.03;4944001;28;20468;-75
2023/09/09 07:47:32;;;;;;;12.10;8.23;;;33.20;92.40;;;32.55;40.16;101753.59;4944086;28;20045;-76
2023/09/09 07:49:58;;;;;;;23.70;7.93;;;33.20;92.10;;;32.61;41.36;101750.09;4920726;29;20040;-76
2023/09/09 07:52:23;;;;;;;15.73;8.48;;;33.10;91.50;;;32.18;41.72;101753.56;4925478;29;20107;-76
2023/09/09 07:54:51;;;;;;;13.50;8.15;;;33.00;91.60;;;31.86;42.43;101750.16;4912569;29;20036;-76
2023/09/09 07:57:17;;;;;;;18.02;8.25;;;32.70;91.60;;;31.59;42.80;101740.75;4911802;29;20065;-76
2023/09/09 07:59:43;;;;;;;15.82;8.68;;;32.70;91.40;;;31.59;42.64;101740.75;4915887;29;20063;-75
2023/09/09 08:02:08;;;;;;;15.82;8.23;;;32.70;91.70;;;31.85;42.19;101742.16;4923163;29;20050;-76
2023/09/09 08:04:34;;;;;;;13.07;7.97;;;32.90;92.10;;;32.41;41.78;101747.13;4897366;29;20059;-76
2023/09/09 08:07:03;;;;;;;15.50;7.82;;;33.00;91.20;;;31.82;42.46;101743.38;4915440;29;20043;-76
2023/09/09 08:09:29;;;;;;;12.85;8.38;;;33.40;91.80;;;33.01;40.33;101750.53;4923636;29;20036;-76
2023/09/09 08:11:54;;;;;;;11.60;7.63;;;33.40;91.10;;;32.49;41.46;101742.41;4914353;29;20159;-77
2023/09/09 08:14:26;;;;;;;14.15;8.13;;;33.60;91.80;;;32.97;41.38;101746.50;4896364;29;20135;-76
2023/09/09 08:16:55;;;;;;;13.95;7.85;;;33.90;90.60;;;33.03;41.08;101752.03;4922866;29;20045;-76
2023/09/09 08:19:21;;;;;;;12.80;7.88;;;34.40;91.00;;;34.19;39.26;101757.13;4923075;29;20036;-76
2023/09/09 08:21:49;;;;;;;14.05;7.80;;;34.50;90.00;;;33.56;39.46;101762.56;4906513;29;20038;-76
2023/09/09 08:24:18;;;;;;;14.18;7.80;;;34.30;89.80;;;33.14;40.01;101747.13;4923923;29;20684;-76
2023/09/09 08:26:47;;;;;;;15.82;8.20;;;34.40;90.30;;;33.51;40.26;101749.50;4921835;29;20070;-76
2023/09/09 08:29:13;;;;;;;11.57;7.75;;;34.20;90.40;;;33.22;40.46;101739.63;4943914;29;20599;-76
2023/09/09 08:31:39;;;;;;;13.20;7.55;;;34.20;91.10;;;33.49;40.22;101743.41;4944541;29;20109;-76
2023/09/09 08:34:05;;;;;;;10.68;7.53;;;34.30;90.90;;;33.65;40.58;101736.84;4942705;29;20110;-76
2023/09/09 08:36:30;;;;;;;12.00;7.65;;;34.00;90.20;;;32.73;41.74;101724.03;4960969;28;20024;-76
2023/09/09 08:38:57;;;;;;;14.63;7.72;;;33.40;90.60;;;32.05;42.67;101713.38;4945013;29;20035;-76
2023/09/09 08:42:20;;;;;;;13.38;6.95;;;33.40;91.00;;;32.42;41.23;101713.38;4942934;29;20043;-76
2023/09/09 08:45:19;;;;;;;11.95;7.32;;;33.10;91.50;;;31.97;42.36;101705.25;4942666;28;20507;-76
2023/09/09 08:47:45;;;;;;;13.55;7.60;;;33.00;90.80;;;31.70;42.83;101700.47;4944620;29;20115;-76
2023/09/09 08:50:13;;;;;;;13.30;7.90;;;32.60;91.60;;;31.37;43.21;101687.19;4943027;29;20505;-76
2023/09/09 08:52:41;;;;;;;12.18;6.40;;;32.40;91.90;;;31.56;43.41;101683.97;4958634;28;20481;-77
2023/09/09 08:55:11;;;;;;;9.75;7.07;;;32.40;91.90;;;31.58;43.03;101689.22;4949478;29;20053;-76
2023/09/09 08:57:37;;;;;;;10.75;7.57;;;32.00;92.00;;;31.16;43.84;101671.59;4942234;29;20052;-76
2023/09/09 09:00:06;;;;;;;16.75;7.18;;;31.80;92.60;;;30.96;44.35;101665.81;4946946;28;20673;-76
2023/09/09 09:02:35;;;;;;;13.80;6.20;;;31.60;93.60;;;31.27;44.66;101663.84;4942784;29;20039;-76
2023/09/09 09:05:09;;;;;;;10.68;7.07;;;31.60;92.80;;;31.12;43.81;101657.50;4942159;29;20039;-76
2023/09/09 09:07:38;;;;;;;11.18;6.90;;;31.60;93.50;;;31.40;43.75;101656.88;4942952;29;20027;-76
2023/09/09 09:10:05;;;;;;;13.27;6.57;;;31.50;92.70;;;30.87;44.64;101646.00;4946453;29;20047;-75
2023/09/09 09:12:38;;;;;;;10.48;6.70;;;31.20;93.40;;;30.46;44.83;101639.00;4943195;28;20043;-76
2023/09/09 09:15:05;;;;;;;12.13;6.88;;;30.80;93.60;;;29.99;46.24;101630.94;4958807;28;20515;-76
2023/09/09 09:17:40;;;;;;;9.30;6.45;;;30.60;93.40;;;29.93;46.01;101618.91;4946932;28;20062;-76
2023/09/09 09:20:07;;;;;;;9.63;6.47;;;30.50;93.30;;;29.89;46.63;101619.44;4939812;29;20044;-77
2023/09/09 09:22:39;;;;;;;8.40;6.13;;;30.50;94.40;;;30.09;45.92;101622.53;4959251;28;20074;-76
2023/09/09 09:25:08;;;;;;;7.97;6.20;;;30.30;94.60;;;29.85;46.89;101610.81;4943241;29;20044;-75
2023/09/09 09:27:42;;;;;;;10.27;6.22;;;30.40;94.80;;;29.68;46.91;101601.88;4942131;28;20039;-76
2023/09/09 09:30:11;;;;;;;8.18;6.10;;;30.20;94.40;;;29.80;46.76;101611.31;4956826;28;20470;-76
2023/09/09 09:32:43;;;;;;;10.80;5.80;;;30.40;94.70;;;30.05;46.24;101612.06;4947327;29;20039;-76
2023/09/09 09:35:36;;;;;;;9.68;6.13;;;30.50;95.40;;;30.28;45.68;101613.97;4942451;29;20031;-77
2023/09/09 09:38:06;;;;;;;13.32;5.75;;;30.50;94.00;;;30.15;46.40;101608.25;4943258;29;20466;-76
2023/09/09 09:40:35;;;;;;;10.68;6.18;;;30.50;93.80;;;30.14;45.94;101606.56;4941063;29;20055;-76
2023/09/09 09:43:02;;;;;;;9.48;6.35;;;30.60;94.50;;;30.35;45.82;101608.69;4942094;29;20109;-76
2023/09/09 09:45:33;;;;;;;8.10;5.50;;;30.70;94.30;;;30.43;45.79;101608.59;4959252;28;20055;-77
2023/09/09 09:48:02;;;;;;;11.48;5.85;;;30.70;93.70;;;30.30;46.07;101595.63;4948956;28;20069;-76
2023/09/09 09:50:35;;;;;;;10.52;5.93;;;30.70;94.50;;;30.32;46.19;101599.00;4941467;29;20051;-76
2023/09/09 09:53:09;;;;;;;9.43;5.50;;;30.80;94.50;;;30.57;45.79;101601.56;4964093;28;20043;-76
2023/09/09 09:55:38;;;;;;;11.70;6.55;;;30.80;93.40;;;30.24;45.25;101594.47;4956574;28;20622;-76
2023/09/09 09:58:10;;;;;;;14.73;5.85;;;30.80;94.00;;;30.35;45.28;101593.22;4958474;28;20413;-77